Sant Feliu de Llobregat, Spain
Current Conditions -  °F | °C
As of 12:00 PM on Monday 20 Oct 2014 (Local Time) from LEBL Reporting Station
Few Clouds Few Clouds  
Wind Chill: 73°   Ceiling: Unl
Heat Index: 73°   Visibility: 6mi
Dew Point: 64°   Wind: 6mph
Humidity: 73%   Direction: 220°SW
Pressure: 30.18"   Gusts: NA
Location:  41.38°N, 2.05°E
Report Text: LEBL 201000Z 22005KT 9999 FEW008 23/18 Q1022 NOSIG
Loading
Personal Weather Stations






























Interactive Weather Map New forecast layout! Learn more

10-Day Weather Forecast

Advertisements
Track Severe Weather on mobile